sensor_id;sensor_type;location;lat;lon;timestamp;P1;durP1;ratioP1;P2;durP2;ratioP2
15385;SDS011;7791;47.246;9.648;2022-07-29T00:03:48;3.67;;;3.30;;
15385;SDS011;7791;47.246;9.648;2022-07-29T00:06:15;7.07;;;3.13;;
15385;SDS011;7791;47.246;9.648;2022-07-29T00:08:40;3.03;;;2.77;;
15385;SDS011;7791;47.246;9.648;2022-07-29T00:11:07;4.90;;;3.00;;
15385;SDS011;7791;47.246;9.648;2022-07-29T00:13:51;4.60;;;3.33;;
15385;SDS011;7791;47.246;9.648;2022-07-29T00:16:17;4.17;;;3.10;;
15385;SDS011;7791;47.246;9.648;2022-07-29T00:18:42;5.37;;;3.00;;
15385;SDS011;7791;47.246;9.648;2022-07-29T00:21:08;5.77;;;3.10;;
15385;SDS011;7791;47.246;9.648;2022-07-29T00:23:35;3.80;;;2.83;;
15385;SDS011;7791;47.246;9.648;2022-07-29T00:26:02;4.67;;;2.70;;
15385;SDS011;7791;47.246;9.648;2022-07-29T00:28:28;5.17;;;2.63;;
15385;SDS011;7791;47.246;9.648;2022-07-29T00:30:54;4.47;;;2.90;;
15385;SDS011;7791;47.246;9.648;2022-07-29T00:33:19;6.47;;;2.77;;
15385;SDS011;7791;47.246;9.648;2022-07-29T00:35:45;3.13;;;2.50;;
15385;SDS011;7791;47.246;9.648;2022-07-29T00:38:12;6.53;;;2.90;;
15385;SDS011;7791;47.246;9.648;2022-07-29T00:40:42;2.80;;;2.50;;
15385;SDS011;7791;47.246;9.648;2022-07-29T00:49:00;7.63;;;3.10;;
15385;SDS011;7791;47.246;9.648;2022-07-29T00:51:26;3.80;;;2.90;;
15385;SDS011;7791;47.246;9.648;2022-07-29T00:53:52;7.07;;;3.00;;
15385;SDS011;7791;47.246;9.648;2022-07-29T00:56:19;8.70;;;3.13;;
15385;SDS011;7791;47.246;9.648;2022-07-29T00:58:50;6.77;;;3.60;;
15385;SDS011;7791;47.246;9.648;2022-07-29T01:01:17;7.23;;;3.73;;
15385;SDS011;7791;47.246;9.648;2022-07-29T01:03:43;4.30;;;2.70;;
15385;SDS011;7791;47.246;9.648;2022-07-29T01:06:10;7.33;;;3.50;;
15385;SDS011;7791;47.246;9.648;2022-07-29T01:08:35;8.13;;;3.07;;
15385;SDS011;7791;47.246;9.648;2022-07-29T01:11:02;3.77;;;2.80;;
15385;SDS011;7791;47.246;9.648;2022-07-29T01:16:29;4.70;;;3.30;;
15385;SDS011;7791;47.246;9.648;2022-07-29T01:18:58;6.80;;;3.17;;
15385;SDS011;7791;47.246;9.648;2022-07-29T01:21:40;7.93;;;3.20;;
15385;SDS011;7791;47.246;9.648;2022-07-29T01:24:22;3.53;;;2.93;;
15385;SDS011;7791;47.246;9.648;2022-07-29T01:26:59;3.90;;;3.27;;
15385;SDS011;7791;47.246;9.648;2022-07-29T01:32:24;4.03;;;3.53;;
15385;SDS011;7791;47.246;9.648;2022-07-29T01:34:53;6.53;;;2.93;;
15385;SDS011;7791;47.246;9.648;2022-07-29T01:37:24;7.97;;;3.40;;
15385;SDS011;7791;47.246;9.648;2022-07-29T01:39:54;4.40;;;3.13;;
15385;SDS011;7791;47.246;9.648;2022-07-29T01:42:23;5.80;;;3.30;;
15385;SDS011;7791;47.246;9.648;2022-07-29T01:47:49;5.73;;;3.47;;
15385;SDS011;7791;47.246;9.648;2022-07-29T01:50:23;4.00;;;3.60;;
15385;SDS011;7791;47.246;9.648;2022-07-29T01:52:56;5.20;;;3.43;;
15385;SDS011;7791;47.246;9.648;2022-07-29T01:55:25;8.20;;;3.27;;
15385;SDS011;7791;47.246;9.648;2022-07-29T01:57:54;4.47;;;3.20;;
15385;SDS011;7791;47.246;9.648;2022-07-29T02:00:26;4.60;;;3.40;;
15385;SDS011;7791;47.246;9.648;2022-07-29T02:02:54;5.37;;;3.10;;
15385;SDS011;7791;47.246;9.648;2022-07-29T02:05:22;6.50;;;3.70;;
15385;SDS011;7791;47.246;9.648;2022-07-29T02:07:51;4.83;;;3.40;;
15385;SDS011;7791;47.246;9.648;2022-07-29T02:10:20;6.17;;;3.67;;
15385;SDS011;7791;47.246;9.648;2022-07-29T02:12:48;6.13;;;3.43;;
15385;SDS011;7791;47.246;9.648;2022-07-29T02:15:30;5.77;;;3.10;;
15385;SDS011;7791;47.246;9.648;2022-07-29T02:17:59;5.20;;;3.50;;
15385;SDS011;7791;47.246;9.648;2022-07-29T02:20:27;6.47;;;3.60;;
15385;SDS011;7791;47.246;9.648;2022-07-29T02:22:54;7.13;;;3.60;;
15385;SDS011;7791;47.246;9.648;2022-07-29T02:25:22;8.03;;;3.80;;
15385;SDS011;7791;47.246;9.648;2022-07-29T02:27:50;7.97;;;3.40;;
15385;SDS011;7791;47.246;9.648;2022-07-29T02:33:21;7.03;;;3.67;;
15385;SDS011;7791;47.246;9.648;2022-07-29T02:35:50;6.50;;;3.20;;
15385;SDS011;7791;47.246;9.648;2022-07-29T02:38:17;6.13;;;3.10;;
15385;SDS011;7791;47.246;9.648;2022-07-29T02:40:44;4.10;;;2.97;;
15385;SDS011;7791;47.246;9.648;2022-07-29T02:43:11;5.20;;;3.60;;
15385;SDS011;7791;47.246;9.648;2022-07-29T02:45:39;4.13;;;3.37;;
15385;SDS011;7791;47.246;9.648;2022-07-29T02:48:06;7.40;;;3.90;;
15385;SDS011;7791;47.246;9.648;2022-07-29T02:50:38;6.63;;;3.53;;
15385;SDS011;7791;47.246;9.648;2022-07-29T02:53:09;4.33;;;3.33;;
15385;SDS011;7791;47.246;9.648;2022-07-29T02:55:40;7.33;;;3.50;;
15385;SDS011;7791;47.246;9.648;2022-07-29T02:58:10;5.57;;;3.40;;
15385;SDS011;7791;47.246;9.648;2022-07-29T03:00:44;6.10;;;3.30;;
15385;SDS011;7791;47.246;9.648;2022-07-29T03:03:13;5.80;;;3.10;;
15385;SDS011;7791;47.246;9.648;2022-07-29T03:05:43;7.83;;;3.23;;
15385;SDS011;7791;47.246;9.648;2022-07-29T03:08:10;4.03;;;2.90;;
15385;SDS011;7791;47.246;9.648;2022-07-29T03:10:38;4.63;;;3.03;;
15385;SDS011;7791;47.246;9.648;2022-07-29T03:13:07;6.20;;;3.10;;
15385;SDS011;7791;47.246;9.648;2022-07-29T03:15:42;6.83;;;3.70;;
15385;SDS011;7791;47.246;9.648;2022-07-29T03:18:09;4.97;;;3.40;;
15385;SDS011;7791;47.246;9.648;2022-07-29T03:20:36;8.50;;;3.70;;
15385;SDS011;7791;47.246;9.648;2022-07-29T03:23:04;7.63;;;3.17;;
15385;SDS011;7791;47.246;9.648;2022-07-29T03:25:30;7.13;;;3.47;;
15385;SDS011;7791;47.246;9.648;2022-07-29T03:27:56;6.07;;;3.20;;
15385;SDS011;7791;47.246;9.648;2022-07-29T03:30:22;4.20;;;3.17;;
15385;SDS011;7791;47.246;9.648;2022-07-29T03:32:48;7.43;;;3.30;;
15385;SDS011;7791;47.246;9.648;2022-07-29T03:35:15;5.23;;;3.23;;
15385;SDS011;7791;47.246;9.648;2022-07-29T03:37:41;4.07;;;3.00;;
15385;SDS011;7791;47.246;9.648;2022-07-29T03:40:10;6.10;;;3.17;;
15385;SDS011;7791;47.246;9.648;2022-07-29T03:42:39;6.63;;;3.13;;
15385;SDS011;7791;47.246;9.648;2022-07-29T03:45:09;7.27;;;3.63;;
15385;SDS011;7791;47.246;9.648;2022-07-29T03:47:40;5.03;;;3.60;;
15385;SDS011;7791;47.246;9.648;2022-07-29T03:50:11;6.00;;;3.10;;
15385;SDS011;7791;47.246;9.648;2022-07-29T03:52:39;4.37;;;3.13;;
15385;SDS011;7791;47.246;9.648;2022-07-29T03:55:06;5.23;;;3.27;;
15385;SDS011;7791;47.246;9.648;2022-07-29T03:57:35;6.33;;;3.50;;
15385;SDS011;7791;47.246;9.648;2022-07-29T04:00:03;9.30;;;3.47;;
15385;SDS011;7791;47.246;9.648;2022-07-29T04:02:30;5.27;;;3.57;;
15385;SDS011;7791;47.246;9.648;2022-07-29T04:04:57;6.93;;;3.33;;
15385;SDS011;7791;47.246;9.648;2022-07-29T04:07:23;4.53;;;3.20;;
15385;SDS011;7791;47.246;9.648;2022-07-29T04:09:49;6.97;;;3.50;;
15385;SDS011;7791;47.246;9.648;2022-07-29T04:12:16;4.57;;;3.53;;
15385;SDS011;7791;47.246;9.648;2022-07-29T04:14:42;7.60;;;3.60;;
15385;SDS011;7791;47.246;9.648;2022-07-29T04:17:09;6.33;;;3.60;;
15385;SDS011;7791;47.246;9.648;2022-07-29T04:19:36;5.80;;;3.70;;
15385;SDS011;7791;47.246;9.648;2022-07-29T04:22:02;7.27;;;4.00;;
15385;SDS011;7791;47.246;9.648;2022-07-29T04:24:28;5.93;;;4.30;;
15385;SDS011;7791;47.246;9.648;2022-07-29T04:26:54;5.23;;;4.20;;
15385;SDS011;7791;47.246;9.648;2022-07-29T04:29:22;7.83;;;4.60;;
15385;SDS011;7791;47.246;9.648;2022-07-29T04:32:06;9.07;;;4.10;;
15385;SDS011;7791;47.246;9.648;2022-07-29T04:34:33;9.30;;;4.67;;
15385;SDS011;7791;47.246;9.648;2022-07-29T04:36:59;7.53;;;4.27;;
15385;SDS011;7791;47.246;9.648;2022-07-29T04:39:26;4.50;;;4.10;;
15385;SDS011;7791;47.246;9.648;2022-07-29T04:41:53;8.27;;;4.53;;
15385;SDS011;7791;47.246;9.648;2022-07-29T04:44:19;10.17;;;4.60;;
15385;SDS011;7791;47.246;9.648;2022-07-29T04:46:47;10.00;;;4.23;;
15385;SDS011;7791;47.246;9.648;2022-07-29T04:49:13;6.67;;;4.70;;
15385;SDS011;7791;47.246;9.648;2022-07-29T04:51:39;8.27;;;4.90;;
15385;SDS011;7791;47.246;9.648;2022-07-29T04:54:05;6.73;;;3.50;;
15385;SDS011;7791;47.246;9.648;2022-07-29T04:56:30;7.13;;;3.57;;
15385;SDS011;7791;47.246;9.648;2022-07-29T04:58:57;4.83;;;2.90;;
15385;SDS011;7791;47.246;9.648;2022-07-29T05:01:42;4.17;;;3.57;;
15385;SDS011;7791;47.246;9.648;2022-07-29T05:04:08;4.47;;;3.57;;
15385;SDS011;7791;47.246;9.648;2022-07-29T05:06:34;5.67;;;3.57;;
15385;SDS011;7791;47.246;9.648;2022-07-29T05:09:00;6.90;;;3.53;;
15385;SDS011;7791;47.246;9.648;2022-07-29T05:11:26;5.70;;;3.60;;
15385;SDS011;7791;47.246;9.648;2022-07-29T05:13:52;7.97;;;3.20;;
15385;SDS011;7791;47.246;9.648;2022-07-29T05:16:18;8.10;;;4.00;;
15385;SDS011;7791;47.246;9.648;2022-07-29T05:18:45;5.03;;;3.23;;
15385;SDS011;7791;47.246;9.648;2022-07-29T05:21:11;5.50;;;3.27;;
15385;SDS011;7791;47.246;9.648;2022-07-29T05:23:37;5.93;;;3.37;;
15385;SDS011;7791;47.246;9.648;2022-07-29T05:26:03;5.67;;;3.27;;
15385;SDS011;7791;47.246;9.648;2022-07-29T05:28:30;5.23;;;3.03;;
15385;SDS011;7791;47.246;9.648;2022-07-29T05:30:58;3.27;;;2.40;;
15385;SDS011;7791;47.246;9.648;2022-07-29T05:33:26;4.67;;;2.50;;
15385;SDS011;7791;47.246;9.648;2022-07-29T05:35:53;6.60;;;2.87;;
15385;SDS011;7791;47.246;9.648;2022-07-29T05:38:20;5.00;;;2.93;;
15385;SDS011;7791;47.246;9.648;2022-07-29T05:40:46;4.97;;;3.00;;
15385;SDS011;7791;47.246;9.648;2022-07-29T05:43:13;7.60;;;2.97;;
15385;SDS011;7791;47.246;9.648;2022-07-29T05:45:39;5.23;;;2.97;;
15385;SDS011;7791;47.246;9.648;2022-07-29T05:48:24;6.13;;;2.80;;
15385;SDS011;7791;47.246;9.648;2022-07-29T05:50:50;3.93;;;3.17;;
15385;SDS011;7791;47.246;9.648;2022-07-29T05:53:17;4.03;;;2.97;;
15385;SDS011;7791;47.246;9.648;2022-07-29T05:55:43;3.07;;;2.70;;
15385;SDS011;7791;47.246;9.648;2022-07-29T05:58:09;3.07;;;2.67;;
15385;SDS011;7791;47.246;9.648;2022-07-29T06:00:35;4.07;;;2.20;;
15385;SDS011;7791;47.246;9.648;2022-07-29T06:03:01;4.73;;;3.10;;
15385;SDS011;7791;47.246;9.648;2022-07-29T06:05:27;3.50;;;2.80;;
15385;SDS011;7791;47.246;9.648;2022-07-29T06:07:52;6.57;;;2.90;;
15385;SDS011;7791;47.246;9.648;2022-07-29T06:10:20;4.27;;;2.90;;
15385;SDS011;7791;47.246;9.648;2022-07-29T06:12:46;3.87;;;2.80;;
15385;SDS011;7791;47.246;9.648;2022-07-29T06:15:12;4.27;;;2.70;;
15385;SDS011;7791;47.246;9.648;2022-07-29T06:17:38;4.10;;;2.50;;
15385;SDS011;7791;47.246;9.648;2022-07-29T06:20:04;2.83;;;2.53;;
15385;SDS011;7791;47.246;9.648;2022-07-29T06:22:31;3.13;;;2.50;;
15385;SDS011;7791;47.246;9.648;2022-07-29T06:24:56;12.77;;;2.77;;
15385;SDS011;7791;47.246;9.648;2022-07-29T06:27:25;5.77;;;2.50;;
15385;SDS011;7791;47.246;9.648;2022-07-29T06:29:51;4.10;;;2.90;;
15385;SDS011;7791;47.246;9.648;2022-07-29T06:32:16;3.07;;;2.27;;
15385;SDS011;7791;47.246;9.648;2022-07-29T06:34:43;4.70;;;2.40;;
15385;SDS011;7791;47.246;9.648;2022-07-29T06:37:09;4.43;;;2.60;;
15385;SDS011;7791;47.246;9.648;2022-07-29T06:39:36;2.97;;;2.67;;
15385;SDS011;7791;47.246;9.648;2022-07-29T06:42:03;2.57;;;2.17;;
15385;SDS011;7791;47.246;9.648;2022-07-29T06:44:31;2.53;;;2.20;;
15385;SDS011;7791;47.246;9.648;2022-07-29T06:46:57;3.77;;;2.10;;
15385;SDS011;7791;47.246;9.648;2022-07-29T06:49:23;4.23;;;2.40;;
15385;SDS011;7791;47.246;9.648;2022-07-29T06:51:49;4.43;;;2.63;;
15385;SDS011;7791;47.246;9.648;2022-07-29T06:54:15;2.97;;;2.27;;
15385;SDS011;7791;47.246;9.648;2022-07-29T06:56:41;3.53;;;2.10;;
15385;SDS011;7791;47.246;9.648;2022-07-29T06:59:07;3.63;;;2.13;;
15385;SDS011;7791;47.246;9.648;2022-07-29T07:01:36;2.83;;;2.10;;
15385;SDS011;7791;47.246;9.648;2022-07-29T07:07:06;2.27;;;1.80;;
15385;SDS011;7791;47.246;9.648;2022-07-29T07:09:32;5.33;;;1.53;;
15385;SDS011;7791;47.246;9.648;2022-07-29T07:11:58;2.03;;;1.80;;
15385;SDS011;7791;47.246;9.648;2022-07-29T07:14:24;4.10;;;1.90;;
15385;SDS011;7791;47.246;9.648;2022-07-29T07:16:51;5.43;;;2.03;;
15385;SDS011;7791;47.246;9.648;2022-07-29T07:19:17;4.13;;;2.30;;
15385;SDS011;7791;47.246;9.648;2022-07-29T07:21:44;3.43;;;2.20;;
15385;SDS011;7791;47.246;9.648;2022-07-29T07:24:13;2.83;;;1.70;;
15385;SDS011;7791;47.246;9.648;2022-07-29T07:26:42;2.97;;;2.00;;
15385;SDS011;7791;47.246;9.648;2022-07-29T07:29:08;3.00;;;1.93;;
15385;SDS011;7791;47.246;9.648;2022-07-29T07:31:34;3.80;;;1.87;;
15385;SDS011;7791;47.246;9.648;2022-07-29T07:34:14;3.70;;;2.03;;
15385;SDS011;7791;47.246;9.648;2022-07-29T07:36:41;6.97;;;1.70;;
15385;SDS011;7791;47.246;9.648;2022-07-29T07:39:07;5.07;;;1.90;;
15385;SDS011;7791;47.246;9.648;2022-07-29T07:41:33;4.88;;;2.60;;
15385;SDS011;7791;47.246;9.648;2022-07-29T07:44:01;4.60;;;1.88;;
15385;SDS011;7791;47.246;9.648;2022-07-29T07:46:28;5.77;;;2.00;;
15385;SDS011;7791;47.246;9.648;2022-07-29T07:49:00;3.28;;;2.10;;
15385;SDS011;7791;47.246;9.648;2022-07-29T07:51:27;2.33;;;1.60;;
15385;SDS011;7791;47.246;9.648;2022-07-29T07:53:55;3.33;;;1.80;;
15385;SDS011;7791;47.246;9.648;2022-07-29T07:56:22;2.70;;;1.73;;
15385;SDS011;7791;47.246;9.648;2022-07-29T07:58:48;2.97;;;1.70;;
15385;SDS011;7791;47.246;9.648;2022-07-29T08:01:13;2.70;;;1.93;;
15385;SDS011;7791;47.246;9.648;2022-07-29T08:03:42;5.03;;;1.80;;
15385;SDS011;7791;47.246;9.648;2022-07-29T08:06:07;7.67;;;2.10;;
15385;SDS011;7791;47.246;9.648;2022-07-29T08:08:35;2.77;;;2.00;;
15385;SDS011;7791;47.246;9.648;2022-07-29T08:11:02;5.10;;;2.17;;
15385;SDS011;7791;47.246;9.648;2022-07-29T08:13:29;5.43;;;2.53;;
15385;SDS011;7791;47.246;9.648;2022-07-29T08:15:56;8.37;;;2.70;;
15385;SDS011;7791;47.246;9.648;2022-07-29T08:18:24;4.13;;;2.30;;
15385;SDS011;7791;47.246;9.648;2022-07-29T08:26:48;4.73;;;2.70;;
15385;SDS011;7791;47.246;9.648;2022-07-29T08:29:14;2.67;;;2.27;;
15385;SDS011;7791;47.246;9.648;2022-07-29T08:31:40;4.60;;;2.27;;
15385;SDS011;7791;47.246;9.648;2022-07-29T08:34:06;4.60;;;2.63;;
15385;SDS011;7791;47.246;9.648;2022-07-29T08:42:56;4.20;;;2.60;;
15385;SDS011;7791;47.246;9.648;2022-07-29T08:45:22;2.57;;;2.30;;
15385;SDS011;7791;47.246;9.648;2022-07-29T08:47:49;4.77;;;2.40;;
15385;SDS011;7791;47.246;9.648;2022-07-29T08:50:16;5.20;;;2.80;;
15385;SDS011;7791;47.246;9.648;2022-07-29T08:52:41;2.93;;;2.30;;
15385;SDS011;7791;47.246;9.648;2022-07-29T08:55:09;2.70;;;2.33;;
15385;SDS011;7791;47.246;9.648;2022-07-29T08:57:37;3.50;;;2.07;;
15385;SDS011;7791;47.246;9.648;2022-07-29T09:00:07;1.80;;;1.70;;
15385;SDS011;7791;47.246;9.648;2022-07-29T09:02:38;1.97;;;1.77;;
15385;SDS011;7791;47.246;9.648;2022-07-29T09:05:08;12.20;;;2.70;;
15385;SDS011;7791;47.246;9.648;2022-07-29T09:07:35;7.67;;;2.87;;
15385;SDS011;7791;47.246;9.648;2022-07-29T09:10:02;4.00;;;1.90;;
15385;SDS011;7791;47.246;9.648;2022-07-29T09:12:30;2.30;;;1.97;;
15385;SDS011;7791;47.246;9.648;2022-07-29T09:17:46;3.37;;;2.20;;
15385;SDS011;7791;47.246;9.648;2022-07-29T09:20:14;3.20;;;1.93;;
15385;SDS011;7791;47.246;9.648;2022-07-29T09:22:48;3.17;;;2.03;;
15385;SDS011;7791;47.246;9.648;2022-07-29T09:25:15;3.90;;;2.03;;
15385;SDS011;7791;47.246;9.648;2022-07-29T09:31:04;3.70;;;2.30;;
15385;SDS011;7791;47.246;9.648;2022-07-29T09:33:55;3.83;;;2.07;;
15385;SDS011;7791;47.246;9.648;2022-07-29T09:36:25;1.65;;;1.55;;
15385;SDS011;7791;47.246;9.648;2022-07-29T09:38:56;3.28;;;1.90;;
15385;SDS011;7791;47.246;9.648;2022-07-29T09:41:23;2.53;;;1.83;;
15385;SDS011;7791;47.246;9.648;2022-07-29T09:43:53;4.05;;;2.25;;
15385;SDS011;7791;47.246;9.648;2022-07-29T09:46:19;3.13;;;2.00;;
15385;SDS011;7791;47.246;9.648;2022-07-29T09:48:45;2.17;;;1.75;;
15385;SDS011;7791;47.246;9.648;2022-07-29T09:54:32;1.75;;;1.65;;
15385;SDS011;7791;47.246;9.648;2022-07-29T09:56:59;2.17;;;1.60;;
15385;SDS011;7791;47.246;9.648;2022-07-29T09:59:27;1.88;;;1.33;;
15385;SDS011;7791;47.246;9.648;2022-07-29T10:01:57;2.65;;;1.33;;
15385;SDS011;7791;47.246;9.648;2022-07-29T10:44:18;2.70;;;1.70;;
15385;SDS011;7791;47.246;9.648;2022-07-29T10:49:23;4.55;;;1.70;;
15385;SDS011;7791;47.246;9.648;2022-07-29T10:57:10;1.98;;;1.42;;
15385;SDS011;7791;47.246;9.648;2022-07-29T10:59:38;4.28;;;1.55;;
15385;SDS011;7791;47.246;9.648;2022-07-29T11:05:05;3.95;;;1.40;;
15385;SDS011;7791;47.246;9.648;2022-07-29T11:10:35;2.38;;;1.73;;
15385;SDS011;7791;47.246;9.648;2022-07-29T11:13:01;4.57;;;1.92;;
15385;SDS011;7791;47.246;9.648;2022-07-29T11:15:29;3.88;;;2.00;;
15385;SDS011;7791;47.246;9.648;2022-07-29T11:18:17;2.10;;;1.70;;
15385;SDS011;7791;47.246;9.648;2022-07-29T11:20:44;5.43;;;1.65;;
15385;SDS011;7791;47.246;9.648;2022-07-29T11:23:18;2.28;;;1.60;;
15385;SDS011;7791;47.246;9.648;2022-07-29T11:28:20;4.65;;;1.90;;
15385;SDS011;7791;47.246;9.648;2022-07-29T11:41:24;4.03;;;2.65;;
15385;SDS011;7791;47.246;9.648;2022-07-29T11:43:51;2.03;;;1.70;;
15385;SDS011;7791;47.246;9.648;2022-07-29T11:49:11;3.38;;;1.90;;
15385;SDS011;7791;47.246;9.648;2022-07-29T11:51:37;2.55;;;1.73;;
15385;SDS011;7791;47.246;9.648;2022-07-29T11:54:09;2.67;;;1.60;;
15385;SDS011;7791;47.246;9.648;2022-07-29T11:56:41;1.75;;;1.50;;
15385;SDS011;7791;47.246;9.648;2022-07-29T11:59:10;4.75;;;1.30;;
15385;SDS011;7791;47.246;9.648;2022-07-29T12:01:51;1.83;;;1.10;;
15385;SDS011;7791;47.246;9.648;2022-07-29T12:04:18;1.40;;;1.30;;
15385;SDS011;7791;47.246;9.648;2022-07-29T12:06:48;1.92;;;1.50;;
15385;SDS011;7791;47.246;9.648;2022-07-29T12:09:21;2.00;;;1.38;;
15385;SDS011;7791;47.246;9.648;2022-07-29T12:11:55;1.92;;;1.30;;
15385;SDS011;7791;47.246;9.648;2022-07-29T12:14:26;1.48;;;1.20;;
15385;SDS011;7791;47.246;9.648;2022-07-29T12:16:52;3.17;;;1.40;;
15385;SDS011;7791;47.246;9.648;2022-07-29T12:19:18;1.77;;;1.48;;
15385;SDS011;7791;47.246;9.648;2022-07-29T12:21:46;1.73;;;1.30;;
15385;SDS011;7791;47.246;9.648;2022-07-29T12:24:16;1.63;;;1.25;;
15385;SDS011;7791;47.246;9.648;2022-07-29T12:26:50;1.83;;;1.35;;
15385;SDS011;7791;47.246;9.648;2022-07-29T12:29:17;1.83;;;1.40;;
15385;SDS011;7791;47.246;9.648;2022-07-29T12:31:45;1.73;;;1.50;;
15385;SDS011;7791;47.246;9.648;2022-07-29T12:34:11;2.13;;;1.38;;
15385;SDS011;7791;47.246;9.648;2022-07-29T12:36:37;2.08;;;1.40;;
15385;SDS011;7791;47.246;9.648;2022-07-29T12:41:55;1.65;;;1.40;;
15385;SDS011;7791;47.246;9.648;2022-07-29T12:44:21;2.47;;;1.35;;
15385;SDS011;7791;47.246;9.648;2022-07-29T12:47:01;2.17;;;1.45;;
15385;SDS011;7791;47.246;9.648;2022-07-29T12:49:27;1.80;;;1.40;;
15385;SDS011;7791;47.246;9.648;2022-07-29T12:51:53;1.98;;;1.70;;
15385;SDS011;7791;47.246;9.648;2022-07-29T12:54:19;2.80;;;1.55;;
15385;SDS011;7791;47.246;9.648;2022-07-29T12:56:45;2.55;;;1.58;;
15385;SDS011;7791;47.246;9.648;2022-07-29T12:59:13;1.90;;;1.42;;
15385;SDS011;7791;47.246;9.648;2022-07-29T13:01:40;2.42;;;1.63;;
15385;SDS011;7791;47.246;9.648;2022-07-29T13:04:06;1.75;;;1.30;;
15385;SDS011;7791;47.246;9.648;2022-07-29T13:06:34;1.63;;;1.50;;
15385;SDS011;7791;47.246;9.648;2022-07-29T13:09:09;2.10;;;1.50;;
15385;SDS011;7791;47.246;9.648;2022-07-29T13:11:42;1.88;;;1.40;;
15385;SDS011;7791;47.246;9.648;2022-07-29T13:14:10;4.53;;;1.40;;
15385;SDS011;7791;47.246;9.648;2022-07-29T13:17:01;1.67;;;1.45;;
15385;SDS011;7791;47.246;9.648;2022-07-29T13:19:33;3.05;;;1.60;;
15385;SDS011;7791;47.246;9.648;2022-07-29T13:22:01;1.92;;;1.60;;
15385;SDS011;7791;47.246;9.648;2022-07-29T13:24:27;1.98;;;1.50;;
15385;SDS011;7791;47.246;9.648;2022-07-29T13:29:58;2.15;;;1.60;;
15385;SDS011;7791;47.246;9.648;2022-07-29T13:32:27;2.85;;;1.50;;
15385;SDS011;7791;47.246;9.648;2022-07-29T13:34:54;3.10;;;1.60;;
15385;SDS011;7791;47.246;9.648;2022-07-29T13:37:21;2.83;;;1.58;;
15385;SDS011;7791;47.246;9.648;2022-07-29T13:39:50;3.53;;;1.60;;
15385;SDS011;7791;47.246;9.648;2022-07-29T13:42:16;4.05;;;1.73;;
15385;SDS011;7791;47.246;9.648;2022-07-29T13:44:43;3.20;;;1.83;;
15385;SDS011;7791;47.246;9.648;2022-07-29T13:47:13;3.63;;;1.75;;
15385;SDS011;7791;47.246;9.648;2022-07-29T13:49:41;1.77;;;1.50;;
15385;SDS011;7791;47.246;9.648;2022-07-29T13:52:06;2.65;;;1.40;;
15385;SDS011;7791;47.246;9.648;2022-07-29T13:54:33;2.20;;;1.73;;
15385;SDS011;7791;47.246;9.648;2022-07-29T13:57:02;2.20;;;1.70;;
15385;SDS011;7791;47.246;9.648;2022-07-29T13:59:29;1.90;;;1.50;;
15385;SDS011;7791;47.246;9.648;2022-07-29T14:01:55;3.28;;;1.70;;
15385;SDS011;7791;47.246;9.648;2022-07-29T14:07:10;3.70;;;2.35;;
15385;SDS011;7791;47.246;9.648;2022-07-29T14:09:37;5.40;;;2.80;;
15385;SDS011;7791;47.246;9.648;2022-07-29T14:14:55;8.20;;;3.10;;
15385;SDS011;7791;47.246;9.648;2022-07-29T14:17:21;6.10;;;3.10;;
15385;SDS011;7791;47.246;9.648;2022-07-29T14:19:48;6.17;;;3.57;;
15385;SDS011;7791;47.246;9.648;2022-07-29T14:22:22;6.57;;;3.40;;
15385;SDS011;7791;47.246;9.648;2022-07-29T14:24:50;7.77;;;3.77;;
15385;SDS011;7791;47.246;9.648;2022-07-29T14:27:17;6.37;;;3.80;;
15385;SDS011;7791;47.246;9.648;2022-07-29T14:29:46;6.27;;;3.37;;
15385;SDS011;7791;47.246;9.648;2022-07-29T14:32:13;4.33;;;3.63;;
15385;SDS011;7791;47.246;9.648;2022-07-29T14:34:40;8.50;;;3.80;;
15385;SDS011;7791;47.246;9.648;2022-07-29T14:37:08;8.03;;;4.13;;
15385;SDS011;7791;47.246;9.648;2022-07-29T14:39:35;5.63;;;4.00;;
15385;SDS011;7791;47.246;9.648;2022-07-29T14:42:01;7.13;;;3.80;;
15385;SDS011;7791;47.246;9.648;2022-07-29T14:44:31;8.20;;;4.33;;
15385;SDS011;7791;47.246;9.648;2022-07-29T14:46:57;7.50;;;4.10;;
15385;SDS011;7791;47.246;9.648;2022-07-29T14:49:23;4.80;;;3.90;;
15385;SDS011;7791;47.246;9.648;2022-07-29T14:51:49;6.70;;;4.50;;
15385;SDS011;7791;47.246;9.648;2022-07-29T14:54:16;7.90;;;4.50;;
15385;SDS011;7791;47.246;9.648;2022-07-29T14:56:44;6.73;;;4.50;;
15385;SDS011;7791;47.246;9.648;2022-07-29T14:59:10;8.00;;;4.57;;
15385;SDS011;7791;47.246;9.648;2022-07-29T15:01:36;8.27;;;4.43;;
15385;SDS011;7791;47.246;9.648;2022-07-29T15:04:02;6.60;;;4.50;;
15385;SDS011;7791;47.246;9.648;2022-07-29T15:06:29;8.47;;;4.50;;
15385;SDS011;7791;47.246;9.648;2022-07-29T15:08:55;10.97;;;4.97;;
15385;SDS011;7791;47.246;9.648;2022-07-29T15:11:22;6.33;;;4.50;;
15385;SDS011;7791;47.246;9.648;2022-07-29T15:13:48;8.80;;;5.10;;
15385;SDS011;7791;47.246;9.648;2022-07-29T15:16:13;6.87;;;4.50;;
15385;SDS011;7791;47.246;9.648;2022-07-29T15:18:40;7.47;;;4.83;;
15385;SDS011;7791;47.246;9.648;2022-07-29T15:21:21;6.83;;;4.67;;
15385;SDS011;7791;47.246;9.648;2022-07-29T15:23:47;5.93;;;4.27;;
15385;SDS011;7791;47.246;9.648;2022-07-29T15:26:14;8.93;;;5.00;;
15385;SDS011;7791;47.246;9.648;2022-07-29T15:28:42;5.17;;;4.30;;
15385;SDS011;7791;47.246;9.648;2022-07-29T15:31:08;7.27;;;3.97;;
15385;SDS011;7791;47.246;9.648;2022-07-29T15:33:34;5.23;;;3.80;;
15385;SDS011;7791;47.246;9.648;2022-07-29T15:36:00;5.37;;;3.60;;
15385;SDS011;7791;47.246;9.648;2022-07-29T15:38:27;5.50;;;3.90;;
15385;SDS011;7791;47.246;9.648;2022-07-29T15:40:53;4.10;;;3.67;;
15385;SDS011;7791;47.246;9.648;2022-07-29T15:43:23;7.33;;;4.40;;
15385;SDS011;7791;47.246;9.648;2022-07-29T15:45:52;4.37;;;3.53;;
15385;SDS011;7791;47.246;9.648;2022-07-29T15:48:18;5.20;;;4.00;;
15385;SDS011;7791;47.246;9.648;2022-07-29T15:50:44;5.80;;;3.67;;
15385;SDS011;7791;47.246;9.648;2022-07-29T15:53:13;4.27;;;3.50;;
15385;SDS011;7791;47.246;9.648;2022-07-29T15:55:39;6.83;;;4.20;;
15385;SDS011;7791;47.246;9.648;2022-07-29T15:58:22;4.47;;;4.07;;
15385;SDS011;7791;47.246;9.648;2022-07-29T16:00:50;5.33;;;3.50;;
15385;SDS011;7791;47.246;9.648;2022-07-29T16:03:26;4.63;;;3.27;;
15385;SDS011;7791;47.246;9.648;2022-07-29T16:05:52;4.03;;;3.60;;
15385;SDS011;7791;47.246;9.648;2022-07-29T16:08:21;4.33;;;3.60;;
15385;SDS011;7791;47.246;9.648;2022-07-29T16:10:50;5.40;;;3.83;;
15385;SDS011;7791;47.246;9.648;2022-07-29T16:13:18;5.20;;;4.17;;
15385;SDS011;7791;47.246;9.648;2022-07-29T16:21:38;5.10;;;3.97;;
15385;SDS011;7791;47.246;9.648;2022-07-29T16:24:04;6.80;;;3.57;;
15385;SDS011;7791;47.246;9.648;2022-07-29T16:26:31;5.07;;;4.20;;
15385;SDS011;7791;47.246;9.648;2022-07-29T16:32:15;4.43;;;3.90;;
15385;SDS011;7791;47.246;9.648;2022-07-29T16:34:42;4.43;;;3.97;;
15385;SDS011;7791;47.246;9.648;2022-07-29T16:37:09;7.73;;;4.43;;
15385;SDS011;7791;47.246;9.648;2022-07-29T16:39:35;5.93;;;4.13;;
15385;SDS011;7791;47.246;9.648;2022-07-29T16:42:01;7.27;;;4.60;;
15385;SDS011;7791;47.246;9.648;2022-07-29T16:47:12;5.80;;;5.10;;
15385;SDS011;7791;47.246;9.648;2022-07-29T16:49:38;7.57;;;4.80;;
15385;SDS011;7791;47.246;9.648;2022-07-29T16:52:09;6.73;;;4.77;;
15385;SDS011;7791;47.246;9.648;2022-07-29T16:54:36;4.97;;;4.03;;
15385;SDS011;7791;47.246;9.648;2022-07-29T16:57:02;7.33;;;4.00;;
15385;SDS011;7791;47.246;9.648;2022-07-29T16:59:28;5.20;;;4.20;;
15385;SDS011;7791;47.246;9.648;2022-07-29T17:04:47;7.63;;;4.00;;
15385;SDS011;7791;47.246;9.648;2022-07-29T17:07:15;5.23;;;3.83;;
15385;SDS011;7791;47.246;9.648;2022-07-29T17:09:41;3.93;;;3.47;;
15385;SDS011;7791;47.246;9.648;2022-07-29T17:12:07;3.73;;;3.23;;
15385;SDS011;7791;47.246;9.648;2022-07-29T17:14:37;3.73;;;3.20;;
15385;SDS011;7791;47.246;9.648;2022-07-29T17:17:15;4.30;;;2.57;;
15385;SDS011;7791;47.246;9.648;2022-07-29T17:19:41;5.33;;;3.10;;
15385;SDS011;7791;47.246;9.648;2022-07-29T17:22:07;3.20;;;2.90;;
15385;SDS011;7791;47.246;9.648;2022-07-29T17:24:34;3.30;;;3.00;;
15385;SDS011;7791;47.246;9.648;2022-07-29T17:27:00;3.20;;;2.90;;